createdAt,value
2018-12-25T00:01:09.264Z,98211.38
2018-12-25T00:03:35.093Z,98229.34
2018-12-25T00:06:03.972Z,98210.50
2018-12-25T00:08:29.817Z,98250.71
2018-12-25T00:10:58.460Z,98234.87
2018-12-25T00:13:24.290Z,98247.27
2018-12-25T00:15:53.022Z,98237.02
2018-12-25T00:18:18.880Z,98245.55
2018-12-25T00:20:47.610Z,98236.14
2018-12-25T00:23:13.466Z,98249.41
2018-12-25T00:25:42.311Z,98242.99
2018-12-25T00:28:08.408Z,98243.41
2018-12-25T00:30:34.240Z,98244.72
2018-12-25T00:33:00.069Z,98245.57
2018-12-25T00:35:26.176Z,98247.27
2018-12-25T00:37:52.062Z,98259.26
2018-12-25T00:40:18.054Z,98272.92
2018-12-25T00:42:47.158Z,98259.68
2018-12-25T00:45:13.026Z,98259.67
2018-12-25T00:47:42.025Z,98267.78
2018-12-25T00:50:07.849Z,98269.52
2018-12-25T00:52:36.768Z,98273.79
2018-12-25T00:55:03.123Z,98280.63
2018-12-25T00:57:32.735Z,98276.36
2018-12-25T00:59:58.862Z,98289.18
2018-12-25T01:02:27.865Z,98296.45
2018-12-25T01:04:53.962Z,98298.14
2018-12-25T01:07:19.824Z,98301.14
2018-12-25T01:09:45.630Z,98299.84
2018-12-25T01:12:11.482Z,98291.72
2018-12-25T01:14:37.649Z,98287.88
2018-12-25T01:17:03.542Z,98290.44
2018-12-25T01:19:34.224Z,98280.61
2018-12-25T01:22:00.376Z,98274.62
2018-12-25T01:24:29.254Z,98270.36
2018-12-25T01:26:55.237Z,98260.06
2018-12-25T01:29:24.139Z,98254.52
2018-12-25T01:31:50.106Z,98251.94
2018-12-25T01:34:16.278Z,98242.55
2018-12-25T01:36:42.103Z,98272.84
2018-12-25T01:39:12.917Z,98257.88
2018-12-25T01:41:38.870Z,98283.55
2018-12-25T01:44:05.069Z,98260.89
2018-12-25T01:46:30.894Z,98265.62
2018-12-25T01:48:56.737Z,98254.48
2018-12-25T01:51:22.873Z,98263.04
2018-12-25T01:53:49.067Z,98260.02
2018-12-25T01:56:17.771Z,98264.28
2018-12-25T01:58:43.607Z,98258.30
2018-12-25T02:01:14.228Z,98252.30
2018-12-25T02:03:40.083Z,98259.56
2018-12-25T02:06:08.962Z,98256.95
2018-12-25T02:08:34.809Z,98277.45
2018-12-25T02:11:03.463Z,98265.52
2018-12-25T02:13:29.328Z,98282.16
2018-12-25T02:15:57.900Z,98276.13
2018-12-25T02:18:23.777Z,98299.13
2018-12-25T02:20:49.864Z,98280.86
2018-12-25T02:23:15.725Z,98300.55
2018-12-25T02:25:41.549Z,98297.14
2018-12-25T02:28:10.601Z,98294.55
2018-12-25T02:30:36.468Z,98314.59
2018-12-25T02:33:05.495Z,98297.48
2018-12-25T02:35:31.381Z,98307.63
2018-12-25T02:37:57.349Z,98276.48
2018-12-25T02:40:23.498Z,98289.24
2018-12-25T02:42:52.422Z,98265.83
2018-12-25T02:45:18.231Z,98257.31
2018-12-25T02:47:48.597Z,98244.52
2018-12-25T02:50:14.415Z,98247.97
2018-12-25T02:52:43.344Z,98247.55
2018-12-25T02:55:09.507Z,98264.16
2018-12-25T02:57:35.363Z,98244.06
2018-12-25T03:00:01.563Z,98252.12
2018-12-25T03:02:27.466Z,98244.47
2018-12-25T03:04:53.629Z,98238.94
2018-12-25T03:07:19.450Z,98259.79
2018-12-25T03:09:49.469Z,98238.48
2018-12-25T03:12:15.299Z,98235.95
2018-12-25T03:14:44.663Z,98233.35
2018-12-25T03:17:10.543Z,98259.38
2018-12-25T03:19:37.658Z,98237.16
2018-12-25T03:22:03.808Z,98244.45
2018-12-25T03:24:33.142Z,98241.05
2018-12-25T03:26:59.026Z,98237.18
2018-12-25T03:29:27.637Z,98232.48
2018-12-25T03:31:53.454Z,98254.63
2018-12-25T03:34:19.301Z,98231.17
2018-12-25T03:36:45.436Z,98232.05
2018-12-25T03:39:11.269Z,98242.66
2018-12-25T03:41:40.220Z,98241.41
2018-12-25T03:44:06.078Z,98247.38
2018-12-25T03:46:34.724Z,98247.38
2018-12-25T03:49:00.614Z,98248.23
2018-12-25T03:51:29.337Z,98248.25
2018-12-25T03:53:55.435Z,98243.56
2018-12-25T03:56:24.434Z,98236.27
2018-12-25T03:58:50.289Z,98249.01
2018-12-25T04:01:19.163Z,98238.73
2018-12-25T04:03:45.024Z,98249.38
2018-12-25T04:06:13.853Z,98243.38
2018-12-25T04:08:39.658Z,98263.39
2018-12-25T04:11:05.504Z,98248.87
2018-12-25T04:13:31.377Z,98246.74
2018-12-25T04:15:57.511Z,98246.34
2018-12-25T04:18:26.181Z,98243.38
2018-12-25T04:20:52.021Z,98246.32
2018-12-25T04:23:18.877Z,98247.17
2018-12-25T04:25:44.699Z,98251.01
2018-12-25T04:28:14.976Z,98248.45
2018-12-25T04:30:40.829Z,98248.45
2018-12-25T04:33:09.559Z,98240.82
2018-12-25T04:35:35.723Z,98263.84
2018-12-25T04:38:02.819Z,98243.38
2018-12-25T04:40:28.640Z,98238.69
2018-12-25T04:42:57.659Z,98243.39
2018-12-25T04:45:23.806Z,98243.38
2018-12-25T04:47:49.890Z,98245.44
2018-12-25T04:50:15.774Z,98246.27
2018-12-25T04:52:41.890Z,98246.27
2018-12-25T04:55:10.541Z,98246.64
2018-12-25T04:57:36.353Z,98160.59
2018-12-25T05:00:05.455Z,98248.42
2018-12-25T05:02:31.631Z,98267.95
2018-12-25T05:05:00.240Z,98248.34
2018-12-25T05:07:25.983Z,98246.70
2018-12-25T05:09:54.565Z,98255.23
2018-12-25T05:12:20.404Z,98277.75
2018-12-25T05:14:49.863Z,98248.33
2018-12-25T05:17:15.665Z,98276.05
2018-12-25T05:19:42.874Z,98252.19
2018-12-25T05:22:09.019Z,98255.63
2018-12-25T05:24:34.854Z,98265.38
2018-12-25T05:27:00.669Z,98268.78
2018-12-25T05:29:26.524Z,98267.08
2018-12-25T05:31:57.255Z,98267.03
2018-12-25T05:34:23.084Z,98262.63
2018-12-25T05:37:02.013Z,98269.38
2018-12-25T05:39:23.736Z,98277.01
2018-12-25T05:41:49.544Z,98271.91
2018-12-25T05:44:15.712Z,98273.69
2018-12-25T05:46:41.798Z,98284.35
2018-12-25T05:49:07.663Z,98279.13
2018-12-25T05:51:33.476Z,98288.09
2018-12-25T05:53:59.304Z,98278.33
2018-12-25T05:56:28.511Z,98278.72
2018-12-25T05:58:54.672Z,98276.95
2018-12-25T06:01:20.456Z,98281.08
2018-12-25T06:03:46.285Z,98281.94
2018-12-25T06:06:12.146Z,98282.89
2018-12-25T06:08:42.710Z,98282.53
2018-12-25T06:11:08.720Z,98282.91
2018-12-25T06:13:37.318Z,98287.23
2018-12-25T06:16:03.160Z,98291.45
2018-12-25T06:18:31.763Z,98277.72
2018-12-25T06:20:57.653Z,98279.81
2018-12-25T06:23:26.205Z,98282.86
2018-12-25T06:25:52.042Z,98310.56
2018-12-25T06:28:20.671Z,98288.45
2018-12-25T06:30:46.699Z,98282.66
2018-12-25T06:33:15.963Z,98293.02
2018-12-25T06:35:42.084Z,98309.13
2018-12-25T06:38:07.911Z,98287.76
2018-12-25T06:40:34.034Z,98289.52
2018-12-25T06:43:00.131Z,98292.98
2018-12-25T06:45:25.978Z,98293.78
2018-12-25T06:47:51.792Z,98286.12
2018-12-25T06:50:20.586Z,98292.02
2018-12-25T06:52:46.711Z,98290.59
2018-12-25T06:55:14.688Z,98289.27
2018-12-25T06:57:40.800Z,98286.25
2018-12-25T07:00:11.554Z,98275.53
2018-12-25T07:02:37.468Z,98278.57
2018-12-25T07:05:06.358Z,98272.23
2018-12-25T07:07:32.478Z,98271.83
2018-12-25T07:10:01.468Z,98275.22
2018-12-25T07:12:27.304Z,98270.94
2018-12-25T07:14:53.141Z,98270.81
2018-12-25T07:17:19.233Z,98269.11
2018-12-25T07:19:45.324Z,98273.34
2018-12-25T07:22:16.720Z,98272.81
2018-12-25T07:24:42.791Z,98268.52
2018-12-25T07:27:08.605Z,98266.89
2018-12-25T07:29:34.434Z,98266.55
2018-12-25T07:32:00.250Z,98271.39
2018-12-25T07:34:26.102Z,98271.41
2018-12-25T07:36:54.953Z,98271.00
2018-12-25T07:39:20.806Z,98270.30
2018-12-25T07:41:51.160Z,98262.72
2018-12-25T07:44:17.020Z,98290.88
2018-12-25T07:46:43.898Z,98274.34
2018-12-25T07:49:09.827Z,98280.33
2018-12-25T07:51:35.944Z,98275.62
2018-12-25T07:54:01.812Z,98276.64
2018-12-25T07:56:27.933Z,98284.63
2018-12-25T07:58:56.054Z,98286.43
2018-12-25T08:01:21.901Z,98286.84
2018-12-25T08:03:52.851Z,98286.84
2018-12-25T08:06:18.696Z,98299.45
2018-12-25T08:08:45.481Z,98270.63
2018-12-25T08:11:11.347Z,98270.34
2018-12-25T08:13:41.592Z,98263.94
2018-12-25T08:16:07.699Z,98266.50
2018-12-25T08:18:35.085Z,98263.82
2018-12-25T08:21:00.919Z,98260.63
2018-12-25T08:23:29.619Z,98263.17
2018-12-25T08:25:55.471Z,98273.06
2018-12-25T08:28:21.295Z,98285.41
2018-12-25T08:30:47.230Z,98277.05
2018-12-25T08:33:13.068Z,98273.20
2018-12-25T08:35:41.342Z,98266.52
2018-12-25T08:38:07.435Z,98280.70
2018-12-25T08:40:36.309Z,98263.31
2018-12-25T08:43:02.184Z,98254.03
2018-12-25T08:45:31.167Z,98248.91
2018-12-25T08:47:57.008Z,98245.00
2018-12-25T08:50:26.229Z,98234.21
2018-12-25T08:52:52.078Z,98234.21
2018-12-25T08:55:21.026Z,98246.31
2018-12-25T08:57:46.878Z,98250.09
2018-12-25T09:00:15.496Z,98250.66
2018-12-25T09:02:41.342Z,98259.14
2018-12-25T09:05:07.154Z,98260.94
2018-12-25T09:07:33.233Z,98234.90
2018-12-25T09:09:59.341Z,98274.42
2018-12-25T09:12:28.221Z,98277.71
2018-12-25T09:14:54.052Z,98291.61
2018-12-25T09:17:22.919Z,98265.84
2018-12-25T09:19:48.822Z,98257.50
2018-12-25T09:22:16.001Z,98260.47
2018-12-25T09:24:41.869Z,98286.36
2018-12-25T09:27:11.026Z,98270.03
2018-12-25T09:29:36.886Z,98278.05
2018-12-25T09:32:07.323Z,98270.30
2018-12-25T09:34:33.492Z,98273.33
2018-12-25T09:37:02.459Z,98288.06
2018-12-25T09:39:28.331Z,98289.41
2018-12-25T09:41:54.240Z,98294.23
2018-12-25T09:44:20.137Z,98297.02
2018-12-25T09:46:46.007Z,98294.54
2018-12-25T09:49:11.823Z,98304.45
2018-12-25T09:51:37.782Z,98254.66
2018-12-25T09:54:06.598Z,98309.23
2018-12-25T09:56:32.755Z,98311.69
2018-12-25T09:59:01.593Z,98326.38
2018-12-25T10:01:27.434Z,98309.11
2018-12-25T10:03:58.051Z,98297.98
2018-12-25T10:06:23.953Z,98299.38
2018-12-25T10:08:52.572Z,98285.37
2018-12-25T10:11:18.700Z,98300.27
2018-12-25T10:13:47.557Z,98293.55
2018-12-25T10:16:13.721Z,98308.45
2018-12-25T10:18:39.871Z,98288.18
2018-12-25T10:21:05.708Z,98277.30
2018-12-25T10:23:31.553Z,98296.19
2018-12-25T10:25:57.693Z,98304.38
2018-12-25T10:28:23.501Z,98310.52
2018-12-25T10:30:52.644Z,98318.60
2018-12-25T10:33:18.460Z,98309.05
2018-12-25T10:35:47.053Z,98308.87
2018-12-25T10:38:12.875Z,98323.16
2018-12-25T10:40:43.410Z,98305.80
2018-12-25T10:43:09.247Z,98303.03
2018-12-25T10:45:38.165Z,98303.86
2018-12-25T10:48:04.004Z,98326.02
2018-12-25T10:50:32.833Z,98304.38
2018-12-25T10:52:58.698Z,98298.63
2018-12-25T10:55:26.296Z,98317.47
2018-12-25T10:57:52.265Z,98322.11
2018-12-25T11:00:18.418Z,98316.41
2018-12-25T11:02:44.563Z,98312.64
2018-12-25T11:05:10.371Z,98313.42
2018-12-25T11:07:39.439Z,98312.37
2018-12-25T11:10:07.255Z,98321.42
2018-12-25T11:12:33.065Z,98260.52
2018-12-25T11:14:58.905Z,98292.92
2018-12-25T11:17:28.519Z,98279.81
2018-12-25T11:19:55.706Z,98297.72
2018-12-25T11:22:23.563Z,98270.03
2018-12-25T11:24:49.648Z,98273.17
2018-12-25T11:27:18.832Z,98264.91
2018-12-25T11:29:44.634Z,98279.39
2018-12-25T11:32:10.486Z,98265.00
2018-12-25T11:34:36.328Z,98265.06
2018-12-25T11:37:02.226Z,98261.91
2018-12-25T11:39:28.023Z,98257.56
2018-12-25T11:41:54.132Z,98255.30
2018-12-25T11:44:23.500Z,98255.46
2018-12-25T11:46:49.637Z,98264.36
2018-12-25T11:49:18.394Z,98249.08
2018-12-25T11:51:44.280Z,98253.23
2018-12-25T11:54:12.853Z,98242.76
2018-12-25T11:56:38.693Z,98252.12
2018-12-25T11:59:07.286Z,98230.15
2018-12-25T12:01:33.132Z,98229.73
2018-12-25T12:04:01.553Z,98208.97
2018-12-25T12:06:28.639Z,98216.54
2018-12-25T12:08:54.506Z,98220.45
2018-12-25T12:11:20.350Z,98224.68
2018-12-25T12:13:46.421Z,98222.45
2018-12-25T12:16:13.424Z,98234.30
2018-12-25T12:18:39.295Z,98237.08
2018-12-25T12:21:09.903Z,98235.20
2018-12-25T12:23:35.760Z,98236.77
2018-12-25T12:26:04.727Z,98225.00
2018-12-25T12:28:30.569Z,98245.79
2018-12-25T12:30:58.111Z,98231.44
2018-12-25T12:33:24.167Z,98250.28
2018-12-25T12:35:52.799Z,98236.70
2018-12-25T12:38:18.616Z,98248.25
2018-12-25T12:40:47.447Z,98240.28
2018-12-25T12:43:13.376Z,98242.62
2018-12-25T12:45:39.213Z,98236.22
2018-12-25T12:48:05.374Z,98259.23
2018-12-25T12:50:31.212Z,98238.92
2018-12-25T12:53:00.084Z,98243.27
2018-12-25T12:55:25.912Z,98241.65
2018-12-25T12:57:54.541Z,98242.73
2018-12-25T13:00:20.408Z,98266.41
2018-12-25T13:02:49.285Z,98247.95
2018-12-25T13:05:15.144Z,98268.88
2018-12-25T13:07:44.107Z,98249.47
2018-12-25T13:10:10.231Z,98250.14
2018-12-25T13:12:37.242Z,98246.02
2018-12-25T13:15:04.835Z,98252.59
2018-12-25T13:17:32.244Z,98249.25
2018-12-25T13:19:58.097Z,98245.03
2018-12-25T13:22:23.918Z,98257.55
2018-12-25T13:24:49.967Z,98262.81
2018-12-25T13:27:16.076Z,98257.21
2018-12-25T13:29:45.234Z,98255.23
2018-12-25T13:32:11.060Z,98291.82
2018-12-25T13:34:39.655Z,98272.79
2018-12-25T13:37:05.800Z,98308.84
2018-12-25T13:39:34.671Z,98286.63
2018-12-25T13:42:00.489Z,98279.34
2018-12-25T13:44:29.427Z,98279.76
2018-12-25T13:46:55.393Z,98299.86
2018-12-25T13:49:22.433Z,98286.11
2018-12-25T13:51:48.312Z,98290.88
2018-12-25T13:54:17.879Z,98279.72
2018-12-25T13:56:43.736Z,98275.83
2018-12-25T13:59:09.543Z,98271.37
2018-12-25T14:01:35.350Z,98277.84
2018-12-25T14:04:01.606Z,98278.34
2018-12-25T14:06:30.472Z,98277.48
2018-12-25T14:08:56.628Z,98295.02
2018-12-25T14:11:24.151Z,98278.39
2018-12-25T14:13:49.999Z,98287.39
2018-12-25T14:16:20.712Z,98296.41
2018-12-25T14:18:46.570Z,98302.82
2018-12-25T14:21:15.781Z,98295.89
2018-12-25T14:23:41.882Z,98310.83
2018-12-25T14:26:07.720Z,98288.13
2018-12-25T14:28:33.854Z,98296.62
2018-12-25T14:31:04.907Z,98296.17
2018-12-25T14:33:30.995Z,98295.91
2018-12-25T14:35:56.837Z,98276.78
2018-12-25T14:38:22.665Z,98302.02
2018-12-25T14:40:48.545Z,98307.53
2018-12-25T14:43:14.362Z,98314.39
2018-12-25T14:45:40.211Z,98317.80
2018-12-25T14:48:09.055Z,98317.83
2018-12-25T14:50:35.180Z,98312.25
2018-12-25T14:53:03.974Z,98312.25
2018-12-25T14:55:29.822Z,98320.39
2018-12-25T14:57:59.200Z,98319.09
2018-12-25T15:00:25.084Z,98340.06
2018-12-25T15:02:54.622Z,98315.25
2018-12-25T15:05:20.481Z,98325.52
2018-12-25T15:07:49.063Z,98311.39
2018-12-25T15:10:14.941Z,98316.55
2018-12-25T15:12:40.744Z,98316.56
2018-12-25T15:15:06.743Z,98320.81
2018-12-25T15:17:32.601Z,98318.67
2018-12-25T15:19:59.597Z,98315.67
2018-12-25T15:22:25.769Z,98113.06
2018-12-25T15:24:55.053Z,98319.50
2018-12-25T15:27:21.229Z,98329.30
2018-12-25T15:29:49.841Z,98324.20
2018-12-25T15:32:15.655Z,98321.64
2018-12-25T15:34:44.886Z,98324.18
2018-12-25T15:37:11.007Z,98327.15
2018-12-25T15:39:39.853Z,98330.08
2018-12-25T15:42:07.020Z,98321.12
2018-12-25T15:44:32.882Z,98325.41
2018-12-25T15:46:58.983Z,98323.26
2018-12-25T15:49:25.075Z,98321.50
2018-12-25T15:51:51.173Z,98327.45
2018-12-25T15:54:16.999Z,98327.31
2018-12-25T15:56:45.843Z,98327.31
2018-12-25T15:59:11.979Z,98345.28
2018-12-25T16:01:41.222Z,98286.23
2018-12-25T16:04:07.327Z,98331.20
2018-12-25T16:06:34.929Z,98340.57
2018-12-25T16:09:00.758Z,98341.05
2018-12-25T16:11:29.605Z,98331.33
2018-12-25T16:13:55.470Z,98348.71
2018-12-25T16:16:24.150Z,98340.94
2018-12-25T16:18:49.976Z,98351.66
2018-12-25T16:21:20.792Z,98335.03
2018-12-25T16:23:46.642Z,98327.77
2018-12-25T16:26:12.471Z,98337.98
2018-12-25T16:28:38.305Z,98331.60
2018-12-25T16:31:04.150Z,98296.55
2018-12-25T16:33:33.023Z,98323.91
2018-12-25T16:35:59.072Z,98323.86
2018-12-25T16:38:24.938Z,98323.88
2018-12-25T16:40:50.801Z,98314.94
2018-12-25T16:43:20.062Z,98314.09
2018-12-25T16:45:45.895Z,98319.55
2018-12-25T16:48:14.756Z,98319.55
2018-12-25T16:50:40.583Z,98318.31
2018-12-25T16:53:11.203Z,98317.08
2018-12-25T16:55:37.026Z,98298.30
2018-12-25T16:58:05.643Z,98298.30
2018-12-25T17:00:32.242Z,98311.02
2018-12-25T17:02:58.425Z,98311.02
2018-12-25T17:05:24.519Z,98311.80
2018-12-25T17:07:50.609Z,98308.37
2018-12-25T17:10:36.606Z,98300.84
2018-12-25T17:13:02.413Z,98300.84
2018-12-25T17:15:28.256Z,98297.51
2018-12-25T17:17:54.360Z,98295.34
2018-12-25T17:20:20.217Z,98292.17
2018-12-25T17:22:46.349Z,98292.17
2018-12-25T17:25:12.248Z,98307.44
2018-12-25T17:27:38.385Z,98308.24
2018-12-25T17:30:06.755Z,98302.41
2018-12-25T17:32:34.163Z,98304.50
2018-12-25T17:34:59.999Z,98304.50
2018-12-25T17:37:25.856Z,98299.44
2018-12-25T17:39:51.694Z,98294.71
2018-12-25T17:42:17.806Z,98289.67
2018-12-25T17:44:43.641Z,98293.91
2018-12-25T17:47:09.484Z,98281.45
2018-12-25T17:49:35.610Z,98292.13
2018-12-25T17:52:08.701Z,98296.01
2018-12-25T17:54:34.923Z,98287.88
2018-12-25T17:57:00.744Z,98283.17
2018-12-25T17:59:26.615Z,98278.91
2018-12-25T18:01:52.642Z,98273.70
2018-12-25T18:04:18.807Z,98289.95
2018-12-25T18:06:44.954Z,98282.65
2018-12-25T18:09:10.871Z,98280.09
2018-12-25T18:11:36.686Z,98280.03
2018-12-25T18:14:02.695Z,98266.68
2018-12-25T18:16:30.081Z,98272.22
2018-12-25T18:18:56.084Z,98272.22
2018-12-25T18:21:22.054Z,98291.45
2018-12-25T18:23:48.110Z,98275.66
2018-12-25T18:26:14.286Z,98280.77
2018-12-25T18:28:43.278Z,98287.62
2018-12-25T18:31:09.116Z,98297.30
2018-12-25T18:33:37.722Z,98296.03
2018-12-25T18:36:03.566Z,98306.67
2018-12-25T18:38:32.418Z,98289.58
2018-12-25T18:40:58.687Z,98289.25
2018-12-25T18:43:27.565Z,98280.69
2018-12-25T18:45:56.277Z,98304.48
2018-12-25T18:48:22.219Z,98276.18
2018-12-25T18:50:48.109Z,98283.77
2018-12-25T18:53:13.981Z,98289.39
2018-12-25T18:55:40.349Z,98286.09
2018-12-25T18:58:06.541Z,98279.70
2018-12-25T19:00:32.341Z,98286.56
2018-12-25T19:02:58.481Z,98287.41
2018-12-25T19:05:27.516Z,98289.96
2018-12-25T19:07:53.337Z,98311.19
2018-12-25T19:10:22.120Z,98290.33
2018-12-25T19:12:47.943Z,98289.94
2018-12-25T19:15:21.130Z,98283.08
2018-12-25T19:17:47.545Z,98293.66
2018-12-25T19:20:13.396Z,98267.61
2018-12-25T19:22:39.535Z,98258.75
2018-12-25T19:25:05.665Z,98255.84
2018-12-25T19:27:31.507Z,98250.24
2018-12-25T19:29:57.310Z,98244.66
2018-12-25T19:32:23.206Z,98243.72
2018-12-25T19:34:49.307Z,98243.72
2018-12-25T19:37:18.189Z,98239.58
2018-12-25T19:39:44.286Z,98256.53
2018-12-25T19:42:13.180Z,98244.48
2018-12-25T19:44:39.270Z,98240.36
2018-12-25T19:47:06.518Z,98174.36
2018-12-25T19:49:32.343Z,98248.48
2018-12-25T19:52:02.846Z,98242.89
2018-12-25T19:54:28.729Z,98245.85
2018-12-25T19:56:58.209Z,98241.63
2018-12-25T19:59:24.025Z,98257.02
2018-12-25T20:01:52.699Z,98237.01
2018-12-25T20:04:22.637Z,98237.86
2018-12-25T20:07:12.003Z,98235.36
2018-12-25T20:09:45.016Z,98236.20
2018-12-25T20:12:32.293Z,98233.30
2018-12-25T20:15:18.466Z,98233.76
2018-12-25T20:18:20.510Z,98227.02
2018-12-25T20:21:05.531Z,98242.77
2018-12-25T20:23:55.112Z,98229.98
2018-12-25T20:26:53.709Z,98216.81
2018-12-25T20:29:52.914Z,98217.64
2018-12-25T20:32:25.352Z,98211.70
2018-12-25T20:35:00.965Z,98198.11
2018-12-25T20:37:47.658Z,98213.02
2018-12-25T20:40:26.215Z,98189.60
2018-12-25T20:43:01.688Z,98192.22
2018-12-25T20:45:34.374Z,98191.44
2018-12-25T20:48:09.848Z,98192.70
2018-12-25T20:51:02.560Z,98186.72
2018-12-25T20:53:47.813Z,98186.32
2018-12-25T20:56:32.861Z,98173.05
2018-12-25T20:59:26.298Z,98182.47
2018-12-25T21:02:04.286Z,98193.11
2018-12-25T21:04:51.684Z,98134.95
2018-12-25T21:07:34.549Z,98184.97
2018-12-25T21:10:27.554Z,98183.67
2018-12-25T21:13:03.263Z,98168.34
2018-12-25T21:15:35.957Z,98165.77
2018-12-25T21:18:22.057Z,98164.08
2018-12-25T21:20:57.831Z,98163.23
2018-12-25T21:24:01.528Z,98168.34
2018-12-25T21:27:04.998Z,98162.32
2018-12-25T21:29:31.253Z,98158.50
2018-12-25T21:31:57.060Z,98159.77
2018-12-25T21:34:23.326Z,98161.06
2018-12-25T21:36:49.666Z,98165.28
2018-12-25T21:39:15.848Z,98160.59
2018-12-25T21:41:41.976Z,98167.39
2018-12-25T21:44:08.000Z,98153.70
2018-12-25T21:46:34.342Z,98160.59
2018-12-25T21:49:00.229Z,98159.31
2018-12-25T21:51:26.253Z,98160.63
2018-12-25T21:53:52.301Z,98163.16
2018-12-25T21:56:25.459Z,98162.69
2018-12-25T21:58:52.322Z,98166.56
2018-12-25T22:01:18.404Z,98167.86
2018-12-25T22:03:44.663Z,98169.55
2018-12-25T22:06:10.800Z,98175.11
2018-12-25T22:08:36.629Z,98161.83
2018-12-25T22:11:02.749Z,98157.97
2018-12-25T22:13:28.602Z,98163.52
2018-12-25T22:15:54.459Z,98154.13
2018-12-25T22:18:20.314Z,98104.53
2018-12-25T22:20:46.146Z,98152.02
2018-12-25T22:23:11.980Z,98155.48
2018-12-25T22:25:42.433Z,98152.56
2018-12-25T22:28:08.329Z,98145.78
2018-12-25T22:30:34.166Z,98143.25
2018-12-25T22:33:00.343Z,98140.29
2018-12-25T22:35:26.401Z,98135.58
2018-12-25T22:37:52.517Z,98125.31
2018-12-25T22:40:18.339Z,98125.31
2018-12-25T22:42:44.177Z,98133.40
2018-12-25T22:45:10.296Z,98141.95
2018-12-25T22:47:38.166Z,98139.35
2018-12-25T22:50:04.736Z,98135.08
2018-12-25T22:52:30.571Z,98135.94
2018-12-25T22:54:56.403Z,98129.55
2018-12-25T22:57:22.325Z,98127.42
2018-12-25T22:59:48.547Z,98123.98
2018-12-25T23:02:15.937Z,98125.25
2018-12-25T23:04:41.786Z,98133.37
2018-12-25T23:07:07.607Z,98128.27
2018-12-25T23:09:33.444Z,98129.95
2018-12-25T23:11:59.552Z,98133.35
2018-12-25T23:14:25.409Z,98120.11
2018-12-25T23:16:51.250Z,98116.70
2018-12-25T23:19:17.088Z,98114.53
2018-12-25T23:21:42.883Z,98104.27
2018-12-25T23:24:08.758Z,98100.04
2018-12-25T23:26:34.891Z,98108.95
2018-12-25T23:29:00.837Z,98112.36
2018-12-25T23:31:26.740Z,98111.13
2018-12-25T23:33:52.585Z,98122.64
2018-12-25T23:36:18.668Z,98120.95
2018-12-25T23:38:44.760Z,98120.06
2018-12-25T23:41:10.580Z,98117.94
2018-12-25T23:43:36.703Z,98122.20
2018-12-25T23:46:02.591Z,98120.44
2018-12-25T23:48:28.413Z,98127.28
2018-12-25T23:50:54.550Z,98122.16
2018-12-25T23:53:23.153Z,98125.53
2018-12-25T23:55:52.949Z,98145.98
2018-12-25T23:58:18.041Z,98124.30
